Time;durP1;ratioP1;P1;durP2;ratioP2;P2;SDS_P1;SDS_P2;PMS_P1;PMS_P2;Temp;Humidity;BMP_temperature;BMP_pressure;BME280_temperature;BME280_humidity;BME280_pressure;Samples;Min_cycle;Max_cycle;Signal;HPM_P1;HPM_P2
2022/04/22 00:01:25;;;;;;;0.00;0.00;;;;;;;;;;5097202;28;20076;-79
2022/04/22 00:03:51;;;;;;;0.00;0.00;;;;;;;;;;5097059;28;20031;-79
2022/04/22 00:06:18;;;;;;;9.10;8.30;;;;;;;;;;5097443;28;20036;-78
2022/04/22 00:08:44;;;;;;;0.00;0.00;;;;;;;;;;5075108;28;20467;-79
2022/04/22 00:11:29;;;;;;;0.00;0.00;;;;;;;;;;5093215;28;20111;-79
2022/04/22 00:13:57;;;;;;;0.77;0.77;;;;;;;;;;5093249;28;20124;-77
2022/04/22 00:16:25;;;;;;;4.57;4.38;;;;;;;;;;5092885;28;20020;-77
2022/04/22 00:18:52;;;;;;;0.22;0.22;;;;;;;;;;5085197;28;20035;-77
2022/04/22 00:21:18;;;;;;;0.00;0.00;;;;;;;;;;5102276;28;20107;-78
2022/04/22 00:23:44;;;;;;;8.25;3.63;;;;;;;;;;5102499;28;20368;-77
2022/04/22 00:26:11;;;;;;;0.00;0.00;;;;;;;;;;5101395;28;20068;-77
2022/04/22 00:28:37;;;;;;;0.00;0.00;;;;;;;;;;5102583;28;20096;-79
2022/04/22 00:31:04;;;;;;;0.17;0.17;;;;;;;;;;5096854;28;20069;-76
2022/04/22 00:33:30;;;;;;;0.00;0.00;;;;;;;;;;5085279;28;20024;-77
2022/04/22 00:35:57;;;;;;;0.00;0.00;;;;;;;;;;5100749;28;20031;-77
2022/04/22 00:38:23;;;;;;;0.00;0.00;;;;;;;;;;5099557;28;20020;-77
2022/04/22 00:40:49;;;;;;;0.00;0.00;;;;;;;;;;5097116;28;20030;-77
2022/04/22 00:43:16;;;;;;;0.00;0.00;;;;;;;;;;5098381;28;20024;-77
2022/04/22 00:45:43;;;;;;;0.00;0.00;;;;;;;;;;5100665;28;20019;-77
2022/04/22 00:48:09;;;;;;;0.00;0.00;;;;;;;;;;5098837;28;20016;-78
2022/04/22 00:50:36;;;;;;;0.00;0.00;;;;;;;;;;5098271;28;20016;-78
2022/04/22 00:53:03;;;;;;;0.10;0.10;;;;;;;;;;5082052;28;20220;-78
2022/04/22 00:55:30;;;;;;;0.00;0.00;;;;;;;;;;5101010;28;20020;-76
2022/04/22 00:57:56;;;;;;;0.00;0.00;;;;;;;;;;5102184;28;20051;-79
2022/04/22 01:00:23;;;;;;;0.00;0.00;;;;;;;;;;5083910;28;20123;-78
2022/04/22 01:02:49;;;;;;;0.00;0.00;;;;;;;;;;5096345;28;20035;-77
2022/04/22 01:10:46;;;;;;;0.00;0.00;;;;;;;;;;5098622;28;20395;-77
2022/04/22 01:13:12;;;;;;;0.00;0.00;;;;;;;;;;5077396;28;20034;-77
2022/04/22 01:15:39;;;;;;;0.00;0.00;;;;;;;;;;5097631;28;20031;-78
2022/04/22 01:18:05;;;;;;;0.47;0.47;;;;;;;;;;5097173;28;20066;-78
2022/04/22 01:20:32;;;;;;;0.00;0.00;;;;;;;;;;5089842;28;20080;-78
2022/04/22 01:22:58;;;;;;;0.00;0.00;;;;;;;;;;5107354;28;20062;-78
2022/04/22 01:25:24;;;;;;;0.00;0.00;;;;;;;;;;5100093;28;20479;-78
2022/04/22 01:27:52;;;;;;;0.00;0.00;;;;;;;;;;5086360;28;20125;-78
2022/04/22 01:30:22;;;;;;;0.47;0.47;;;;;;;;;;5084884;28;20085;-79
2022/04/22 01:32:52;;;;;;;0.00;0.00;;;;;;;;;;5104438;28;20099;-78
2022/04/22 01:35:19;;;;;;;0.00;0.00;;;;;;;;;;5097547;28;20020;-78
2022/04/22 01:37:46;;;;;;;0.00;0.00;;;;;;;;;;5121856;28;20035;-78
2022/04/22 01:40:12;;;;;;;0.00;0.00;;;;;;;;;;5129897;28;20050;-78
2022/04/22 01:42:39;;;;;;;0.22;0.22;;;;;;;;;;5109209;28;20028;-78
2022/04/22 01:45:06;;;;;;;0.00;0.00;;;;;;;;;;5096191;28;20023;-78
2022/04/22 01:47:33;;;;;;;0.00;0.00;;;;;;;;;;5101198;28;20083;-78
2022/04/22 01:49:59;;;;;;;1.13;0.90;;;;;;;;;;5097230;28;20121;-79
2022/04/22 01:52:26;;;;;;;0.00;0.00;;;;;;;;;;5084104;28;20020;-79
2022/04/22 01:54:54;;;;;;;0.00;0.00;;;;;;;;;;5097413;28;20031;-79
2022/04/22 01:57:20;;;;;;;0.00;0.00;;;;;;;;;;5088231;28;20024;-79
2022/04/22 01:59:48;;;;;;;0.00;0.00;;;;;;;;;;5088179;28;20133;-77
2022/04/22 02:02:17;;;;;;;0.00;0.00;;;;;;;;;;5100582;28;20032;-77
2022/04/22 02:04:44;;;;;;;0.00;0.00;;;;;;;;;;5115765;28;20060;-78
2022/04/22 02:07:11;;;;;;;0.30;0.30;;;;;;;;;;5114584;28;20028;-79
2022/04/22 02:09:37;;;;;;;5.53;2.92;;;;;;;;;;5118771;28;20060;-79
2022/04/22 02:12:04;;;;;;;0.90;0.90;;;;;;;;;;5099103;28;20103;-79
2022/04/22 02:14:31;;;;;;;1.95;1.85;;;;;;;;;;5078032;28;20040;-79
2022/04/22 02:16:57;;;;;;;1.65;1.55;;;;;;;;;;5084876;28;20032;-79
2022/04/22 02:19:24;;;;;;;1.65;1.55;;;;;;;;;;5101785;28;20066;-79
2022/04/22 02:21:50;;;;;;;3.38;1.85;;;;;;;;;;5088640;28;20035;-79
2022/04/22 02:24:17;;;;;;;2.10;1.92;;;;;;;;;;5107392;28;20031;-79
2022/04/22 02:29:30;;;;;;;0.00;0.00;;;;;;;;;;5109071;28;20073;-78
2022/04/22 02:31:56;;;;;;;0.20;0.20;;;;;;;;;;5081819;28;20123;-77
2022/04/22 02:34:51;;;;;;;3.38;2.30;;;;;;;;;;5101993;28;20068;-77
2022/04/22 02:37:17;;;;;;;6.80;1.23;;;;;;;;;;5091437;28;20043;-79
2022/04/22 02:39:46;;;;;;;1.70;0.80;;;;;;;;;;5083946;28;20579;-80
2022/04/22 02:48:00;;;;;;;8.80;3.70;;;;;;;;;;5037822;28;20116;-79
2022/04/22 02:50:26;;;;;;;0.20;0.20;;;;;;;;;;5092723;28;20083;-79
2022/04/22 02:52:57;;;;;;;0.00;0.00;;;;;;;;;;5089169;28;20032;-79
2022/04/22 02:55:24;;;;;;;6.18;2.90;;;;;;;;;;5100719;28;20103;-79
2022/04/22 02:57:53;;;;;;;0.05;0.05;;;;;;;;;;5100268;28;20059;-79
2022/04/22 03:00:19;;;;;;;0.10;0.10;;;;;;;;;;5097906;28;20017;-79
2022/04/22 03:02:49;;;;;;;0.52;0.52;;;;;;;;;;5094777;28;20584;-78
2022/04/22 03:05:16;;;;;;;0.63;0.55;;;;;;;;;;5073489;28;20972;-79
2022/04/22 03:07:43;;;;;;;3.40;1.33;;;;;;;;;;5085707;28;20036;-79
2022/04/22 03:10:11;;;;;;;1.55;1.45;;;;;;;;;;5075794;28;20034;-80
2022/04/22 03:12:38;;;;;;;4.47;3.38;;;;;;;;;;5080062;28;20023;-79
2022/04/22 03:15:05;;;;;;;1.55;1.08;;;;;;;;;;5093870;28;20048;-79
2022/04/22 03:17:31;;;;;;;0.15;0.15;;;;;;;;;;5098160;28;20555;-78
2022/04/22 03:20:05;;;;;;;2.72;2.58;;;;;;;;;;5095049;28;20039;-79
2022/04/22 03:22:32;;;;;;;0.93;0.75;;;;;;;;;;5098719;28;20027;-79
2022/04/22 03:25:01;;;;;;;11.05;4.13;;;;;;;;;;5076088;28;20072;-79
2022/04/22 03:27:27;;;;;;;3.50;3.38;;;;;;;;;;5081981;28;20167;-80
2022/04/22 03:30:02;;;;;;;7.72;6.93;;;;;;;;;;5081130;28;20023;-78
2022/04/22 03:32:32;;;;;;;3.20;3.00;;;;;;;;;;5085691;28;20479;-79
2022/04/22 03:34:58;;;;;;;15.93;3.08;;;;;;;;;;5078949;28;20030;-79
2022/04/22 03:40:22;;;;;;;10.45;6.82;;;;;;;;;;5083399;28;20028;-78
2022/04/22 03:43:10;;;;;;;2.92;2.63;;;;;;;;;;5086733;28;20486;-78
2022/04/22 03:45:40;;;;;;;7.50;4.38;;;;;;;;;;5081481;28;20498;-81
2022/04/22 03:48:32;;;;;;;0.60;0.60;;;;;;;;;;5076630;28;20039;-80
2022/04/22 03:51:18;;;;;;;0.40;0.40;;;;;;;;;;5065825;28;20047;-79
2022/04/22 03:53:54;;;;;;;3.60;3.30;;;;;;;;;;5079436;28;20031;-80
2022/04/22 03:59:15;;;;;;;1.50;1.35;;;;;;;;;;5093570;28;20059;-80
2022/04/22 04:01:43;;;;;;;2.05;0.95;;;;;;;;;;5079835;28;20032;-80
2022/04/22 04:04:32;;;;;;;0.00;0.00;;;;;;;;;;5079392;28;20119;-81
2022/04/22 04:16:05;;;;;;;4.53;4.32;;;;;;;;;;5056618;28;20453;-80
2022/04/22 04:18:33;;;;;;;12.15;6.80;;;;;;;;;;5041459;28;20092;-80
2022/04/22 04:24:15;;;;;;;2.58;2.17;;;;;;;;;;5065271;28;20606;-81
2022/04/22 04:26:46;;;;;;;8.32;3.65;;;;;;;;;;5064016;28;20046;-79
2022/04/22 04:29:16;;;;;;;0.93;0.73;;;;;;;;;;5046259;28;20053;-79
2022/04/22 04:31:47;;;;;;;2.08;1.88;;;;;;;;;;5043778;28;20024;-80
2022/04/22 04:34:16;;;;;;;23.55;8.85;;;;;;;;;;5058620;28;20021;-81
2022/04/22 04:36:51;;;;;;;0.00;0.00;;;;;;;;;;5082472;28;20028;-80
2022/04/22 04:39:23;;;;;;;3.30;1.88;;;;;;;;;;5083432;28;20033;-81
2022/04/22 04:41:55;;;;;;;0.00;0.00;;;;;;;;;;5079014;28;20025;-81
2022/04/22 04:44:23;;;;;;;3.20;1.13;;;;;;;;;;5052848;28;20036;-82
2022/04/22 04:46:50;;;;;;;0.57;0.47;;;;;;;;;;5048857;28;20095;-80
2022/04/22 04:49:19;;;;;;;6.85;3.40;;;;;;;;;;5041547;28;20030;-80
2022/04/22 04:51:45;;;;;;;1.75;1.60;;;;;;;;;;5060265;28;20114;-79
2022/04/22 04:54:17;;;;;;;3.80;2.60;;;;;;;;;;5035998;28;20021;-80
2022/04/22 04:56:46;;;;;;;1.30;1.30;;;;;;;;;;5062485;28;20063;-79
2022/04/22 04:59:16;;;;;;;0.35;0.25;;;;;;;;;;5058739;28;20108;-80
2022/04/22 05:01:43;;;;;;;0.03;0.03;;;;;;;;;;5041683;28;20051;-79
2022/04/22 05:04:17;;;;;;;2.72;1.15;;;;;;;;;;5045582;28;20043;-79
2022/04/22 05:06:45;;;;;;;5.13;2.90;;;;;;;;;;5044233;28;20032;-80
2022/04/22 05:09:20;;;;;;;2.20;1.00;;;;;;;;;;5063375;28;20115;-80
2022/04/22 05:11:52;;;;;;;3.70;2.47;;;;;;;;;;5046732;28;20017;-80
2022/04/22 05:14:24;;;;;;;1.85;1.65;;;;;;;;;;5069240;28;20075;-81
2022/04/22 05:17:06;;;;;;;4.07;2.65;;;;;;;;;;5062216;28;20028;-80
2022/04/22 05:19:35;;;;;;;3.38;0.95;;;;;;;;;;5058397;28;20044;-80
2022/04/22 05:22:01;;;;;;;3.72;3.33;;;;;;;;;;5062736;28;20031;-79
2022/04/22 05:24:48;;;;;;;2.10;1.45;;;;;;;;;;5063203;28;20039;-80
2022/04/22 05:27:29;;;;;;;1.65;0.93;;;;;;;;;;5080921;28;20024;-80
2022/04/22 05:32:42;;;;;;;6.10;2.55;;;;;;;;;;5076668;28;20031;-80
2022/04/22 05:35:36;;;;;;;0.35;0.35;;;;;;;;;;5059129;28;20480;-80
2022/04/22 05:38:06;;;;;;;0.93;0.77;;;;;;;;;;5070651;28;20422;-79
2022/04/22 05:40:44;;;;;;;1.25;1.15;;;;;;;;;;5076162;28;20102;-80
2022/04/22 05:43:22;;;;;;;3.40;1.90;;;;;;;;;;5077762;28;20058;-79
2022/04/22 05:45:49;;;;;;;0.03;0.03;;;;;;;;;;5063511;28;20036;-79
2022/04/22 05:48:15;;;;;;;4.90;3.22;;;;;;;;;;5055060;28;20118;-79
2022/04/22 05:50:44;;;;;;;6.22;2.13;;;;;;;;;;5058114;28;20082;-79
2022/04/22 05:53:11;;;;;;;5.47;3.10;;;;;;;;;;5059093;28;20062;-80
2022/04/22 05:55:43;;;;;;;7.80;5.18;;;;;;;;;;5076197;28;20124;-80
2022/04/22 05:58:12;;;;;;;1.13;0.63;;;;;;;;;;5078480;28;20028;-80
2022/04/22 06:00:49;;;;;;;3.00;2.45;;;;;;;;;;5077321;28;20165;-80
2022/04/22 06:03:16;;;;;;;13.38;5.32;;;;;;;;;;5079666;28;20093;-80
2022/04/22 06:05:53;;;;;;;5.22;3.35;;;;;;;;;;5075559;28;20062;-80
2022/04/22 06:11:28;;;;;;;0.47;0.47;;;;;;;;;;5038387;28;20032;-81
2022/04/22 06:13:56;;;;;;;12.30;7.55;;;;;;;;;;5025582;28;20326;-81
2022/04/22 06:16:41;;;;;;;0.00;0.00;;;;;;;;;;5054565;28;20048;-81
2022/04/22 06:19:12;;;;;;;0.00;0.00;;;;;;;;;;5081766;28;20718;-81
2022/04/22 06:21:56;;;;;;;4.32;3.00;;;;;;;;;;5076974;28;20051;-81
2022/04/22 06:24:23;;;;;;;0.43;0.43;;;;;;;;;;5080819;28;20028;-82
2022/04/22 06:26:57;;;;;;;3.80;1.17;;;;;;;;;;5078011;28;20119;-82
2022/04/22 06:29:26;;;;;;;6.25;5.13;;;;;;;;;;5075523;28;20050;-81
2022/04/22 06:32:14;;;;;;;7.38;6.70;;;;;;;;;;5071979;28;20066;-80
2022/04/22 06:34:43;;;;;;;1.85;1.75;;;;;;;;;;5079287;28;20024;-81
2022/04/22 06:37:12;;;;;;;14.38;10.48;;;;;;;;;;5086462;28;20016;-81
2022/04/22 06:45:51;;;;;;;3.88;3.60;;;;;;;;;;5077679;28;20035;-80
2022/04/22 06:51:52;;;;;;;;;;;;;;;;;;;;;
2022/04/22 06:54:19;;;;;;;6.75;5.35;;;;;;;;;;5075520;28;20029;-81
2022/04/22 06:56:55;;;;;;;5.10;4.70;;;;;;;;;;5069078;28;20021;-81
2022/04/22 06:59:27;;;;;;;1.60;1.50;;;;;;;;;;5069472;28;20400;-82
2022/04/22 07:01:53;;;;;;;14.55;4.88;;;;;;;;;;5083254;28;20066;-79
2022/04/22 07:04:24;;;;;;;2.15;1.95;;;;;;;;;;5080442;28;20047;-79
2022/04/22 07:06:54;;;;;;;0.98;0.98;;;;;;;;;;5076490;28;20043;-81
2022/04/22 07:09:20;;;;;;;5.45;2.75;;;;;;;;;;5079573;28;20620;-80
2022/04/22 07:11:57;;;;;;;2.25;0.95;;;;;;;;;;5081220;28;20028;-82
2022/04/22 07:14:25;;;;;;;10.98;3.65;;;;;;;;;;5108818;28;20067;-80
2022/04/22 07:16:57;;;;;;;6.20;3.25;;;;;;;;;;5095173;28;20417;-81
2022/04/22 07:19:26;;;;;;;7.57;1.80;;;;;;;;;;5084382;28;20032;-81
2022/04/22 07:22:03;;;;;;;1.42;1.33;;;;;;;;;;5079391;28;20455;-81
2022/04/22 07:24:37;;;;;;;0.10;0.10;;;;;;;;;;5076210;28;20044;-80
2022/04/22 07:27:06;;;;;;;0.68;0.50;;;;;;;;;;5069165;28;20024;-80
2022/04/22 07:29:36;;;;;;;0.00;0.00;;;;;;;;;;5080476;28;20028;-80
2022/04/22 07:32:02;;;;;;;6.57;3.30;;;;;;;;;;5079924;28;20115;-80
2022/04/22 07:34:33;;;;;;;2.10;1.60;;;;;;;;;;5081676;28;20032;-79
2022/04/22 07:37:25;;;;;;;1.50;1.45;;;;;;;;;;5090982;28;20024;-79
2022/04/22 07:39:52;;;;;;;5.85;2.58;;;;;;;;;;5069674;28;20150;-80
2022/04/22 07:46:46;;;;;;;0.80;0.80;;;;;;;;;;5074063;28;20032;-80
2022/04/22 07:48:17;;;;;;;1.52;1.00;;;;;;;;;;5084508;28;20537;-81
2022/04/22 07:50:53;;;;;;;1.58;1.48;;;;;;;;;;5075948;28;20549;-79
2022/04/22 07:53:42;;;;;;;4.60;2.45;;;;;;;;;;5078923;28;20078;-80
2022/04/22 07:56:11;;;;;;;4.78;2.10;;;;;;;;;;5078244;28;20016;-80
2022/04/22 07:58:59;;;;;;;4.10;2.67;;;;;;;;;;5079524;28;20020;-80
2022/04/22 08:01:28;;;;;;;0.35;0.35;;;;;;;;;;5075369;28;20039;-79
2022/04/22 08:04:05;;;;;;;;;;;;;;;;;;;;;
2022/04/22 08:06:32;;;;;;;7.57;1.90;;;;;;;;;;5080255;28;20039;-80
2022/04/22 08:08:59;;;;;;;0.55;0.55;;;;;;;;;;5077925;28;20024;-81
2022/04/22 08:14:33;;;;;;;8.98;4.10;;;;;;;;;;5062008;28;20074;-81
2022/04/22 08:17:18;;;;;;;0.25;0.25;;;;;;;;;;5079354;28;20054;-80
2022/04/22 08:20:05;;;;;;;9.38;1.65;;;;;;;;;;5076029;28;20028;-80
2022/04/22 08:22:36;;;;;;;0.73;0.73;;;;;;;;;;5078868;28;20036;-80
2022/04/22 08:25:03;;;;;;;1.50;0.90;;;;;;;;;;5083026;28;20065;-79
2022/04/22 08:27:34;;;;;;;0.52;0.52;;;;;;;;;;5083736;28;20036;-80
2022/04/22 08:30:00;;;;;;;0.10;0.10;;;;;;;;;;5079852;28;20024;-80
2022/04/22 08:32:30;;;;;;;0.00;0.00;;;;;;;;;;5094678;28;20099;-80
2022/04/22 08:34:56;;;;;;;0.00;0.00;;;;;;;;;;5089401;28;20254;-80
2022/04/22 08:37:26;;;;;;;1.40;1.35;;;;;;;;;;5095817;28;20379;-81
2022/04/22 08:40:00;;;;;;;0.15;0.15;;;;;;;;;;5094881;28;20028;-80
2022/04/22 08:42:27;;;;;;;8.10;2.65;;;;;;;;;;5083016;28;20089;-80
2022/04/22 08:44:57;;;;;;;1.00;1.00;;;;;;;;;;5077695;28;20028;-81
2022/04/22 08:50:20;;;;;;;0.00;0.00;;;;;;;;;;5049839;28;20047;-80
2022/04/22 08:52:56;;;;;;;0.75;0.75;;;;;;;;;;5081142;28;20545;-81
2022/04/22 08:55:24;;;;;;;0.00;0.00;;;;;;;;;;5076347;28;20051;-81
2022/04/22 08:57:51;;;;;;;0.00;0.00;;;;;;;;;;5098492;28;20027;-80
2022/04/22 09:00:18;;;;;;;0.10;0.10;;;;;;;;;;5075537;28;20063;-81
2022/04/22 09:02:46;;;;;;;5.45;3.03;;;;;;;;;;5074950;28;20024;-80
2022/04/22 09:05:13;;;;;;;0.30;0.30;;;;;;;;;;5093475;28;20112;-78
2022/04/22 09:07:43;;;;;;;0.25;0.25;;;;;;;;;;5072662;28;22289;-77
2022/04/22 09:10:35;;;;;;;;;;;;;;;;;;;;;
2022/04/22 09:13:10;;;;;;;4.97;4.65;;;;;;;;;;5095962;28;20028;-80
2022/04/22 09:16:13;;;;;;;0.15;0.15;;;;;;;;;;5077553;28;20043;-79
2022/04/22 09:28:30;;;;;;;0.15;0.15;;;;;;;;;;5075482;28;20031;-80
2022/04/22 09:31:10;;;;;;;;;;;;;;;;;;;;;
2022/04/22 09:33:59;;;;;;;;;;;;;;;;;;;;;
2022/04/22 09:42:43;;;;;;;0.00;0.00;;;;;;;;;;5102259;28;20023;-81
2022/04/22 09:45:12;;;;;;;0.00;0.00;;;;;;;;;;5084782;28;20107;-80
2022/04/22 09:47:40;;;;;;;0.00;0.00;;;;;;;;;;5094444;28;20095;-80
2022/04/22 09:50:24;;;;;;;;;;;;;;;;;;;;;
2022/04/22 09:53:17;;;;;;;0.00;0.00;;;;;;;;;;5097954;28;20036;-79
2022/04/22 09:55:53;;;;;;;5.00;4.38;;;;;;;;;;5097190;28;20024;-80
2022/04/22 09:58:34;;;;;;;0.00;0.00;;;;;;;;;;5081203;28;20039;-80
2022/04/22 10:01:09;;;;;;;0.00;0.00;;;;;;;;;;5095749;28;20023;-80
2022/04/22 10:03:39;;;;;;;0.00;0.00;;;;;;;;;;5103142;28;20030;-81
2022/04/22 10:06:23;;;;;;;0.00;0.00;;;;;;;;;;5103709;28;20039;-82
2022/04/22 10:08:51;;;;;;;0.00;0.00;;;;;;;;;;5086671;28;20028;-80
2022/04/22 10:11:19;;;;;;;0.00;0.00;;;;;;;;;;5098259;28;20382;-81
2022/04/22 10:13:48;;;;;;;0.45;0.45;;;;;;;;;;5083532;28;20420;-80
2022/04/22 10:16:15;;;;;;;0.85;0.85;;;;;;;;;;5097353;28;20034;-80
2022/04/22 10:18:42;;;;;;;0.00;0.00;;;;;;;;;;5077776;28;20533;-81
2022/04/22 10:21:32;;;;;;;0.00;0.00;;;;;;;;;;5075754;28;20084;-81
2022/04/22 10:24:12;;;;;;;0.00;0.00;;;;;;;;;;5087152;28;20478;-80
2022/04/22 10:29:48;;;;;;;0.00;0.00;;;;;;;;;;5088001;28;20043;-80
2022/04/22 10:32:16;;;;;;;0.00;0.00;;;;;;;;;;5092335;28;20032;-81
2022/04/22 10:34:45;;;;;;;0.35;0.35;;;;;;;;;;5124220;28;20181;-80
2022/04/22 10:37:41;;;;;;;;;;;;;;;;;;;;;
2022/04/22 10:40:18;;;;;;;3.92;0.40;;;;;;;;;;5103752;28;20028;-80
2022/04/22 10:42:59;;;;;;;0.00;0.00;;;;;;;;;;5086041;28;20028;-80
2022/04/22 10:48:55;;;;;;;6.55;6.10;;;;;;;;;;5101722;28;20046;-81
2022/04/22 10:51:44;;;;;;;0.00;0.00;;;;;;;;;;5096865;28;20078;-80
2022/04/22 10:57:18;;;;;;;0.10;0.08;;;;;;;;;;5092488;28;20042;-80
2022/04/22 11:03:08;;;;;;;0.00;0.00;;;;;;;;;;5087414;28;20031;-79
2022/04/22 11:05:51;;;;;;;0.28;0.28;;;;;;;;;;5087418;28;20089;-80
2022/04/22 11:08:28;;;;;;;0.00;0.00;;;;;;;;;;5100753;28;20092;-80
2022/04/22 11:11:05;;;;;;;0.45;0.45;;;;;;;;;;5099995;28;20492;-79
2022/04/22 11:13:56;;;;;;;0.30;0.30;;;;;;;;;;5105390;28;20061;-81
2022/04/22 11:16:25;;;;;;;0.00;0.00;;;;;;;;;;5086055;28;20378;-80
2022/04/22 11:19:18;;;;;;;0.75;0.50;;;;;;;;;;5085322;28;20020;-81
2022/04/22 11:21:52;;;;;;;0.00;0.00;;;;;;;;;;5081327;28;20020;-81
2022/04/22 11:24:56;;;;;;;;;;;;;;;;;;;;;
2022/04/22 11:27:44;;;;;;;0.00;0.00;;;;;;;;;;5099563;28;20036;-81
2022/04/22 11:30:18;;;;;;;0.10;0.10;;;;;;;;;;5077204;28;20036;-80
2022/04/22 11:32:48;;;;;;;0.00;0.00;;;;;;;;;;5096408;28;20482;-80
2022/04/22 11:35:21;;;;;;;3.83;3.20;;;;;;;;;;5096022;28;20031;-80
2022/04/22 11:38:03;;;;;;;0.10;0.10;;;;;;;;;;5087044;28;20107;-79
2022/04/22 11:40:37;;;;;;;0.10;0.05;;;;;;;;;;5076978;28;20028;-81
2022/04/22 11:43:14;;;;;;;0.85;0.55;;;;;;;;;;5099361;28;20455;-81
2022/04/22 11:45:46;;;;;;;0.00;0.00;;;;;;;;;;5079979;28;20042;-81
2022/04/22 11:48:25;;;;;;;0.00;0.00;;;;;;;;;;5096607;28;20134;-84
2022/04/22 11:50:55;;;;;;;1.45;1.45;;;;;;;;;;5100426;28;21372;-82
2022/04/22 11:53:34;;;;;;;1.60;1.55;;;;;;;;;;5096669;28;20047;-80
2022/04/22 11:56:04;;;;;;;0.00;0.00;;;;;;;;;;5097822;28;20149;-80
2022/04/22 11:58:36;;;;;;;0.00;0.00;;;;;;;;;;5102725;28;20093;-80
2022/04/22 12:06:42;;;;;;;0.00;0.00;;;;;;;;;;5104966;28;20031;-82
2022/04/22 12:09:13;;;;;;;0.00;0.00;;;;;;;;;;5098539;28;20432;-80
2022/04/22 12:11:55;;;;;;;0.13;0.13;;;;;;;;;;5084293;28;20397;-83
2022/04/22 12:23:22;;;;;;;0.90;0.90;;;;;;;;;;5079432;28;20417;-80
2022/04/22 12:26:18;;;;;;;9.93;2.28;;;;;;;;;;5082821;28;20087;-82
2022/04/22 12:29:14;;;;;;;0.10;0.08;;;;;;;;;;5082637;28;20032;-80
2022/04/22 12:31:59;;;;;;;2.13;0.45;;;;;;;;;;4982984;28;20066;-80
2022/04/22 12:34:42;;;;;;;0.00;0.00;;;;;;;;;;5085452;28;20039;-78
2022/04/22 12:37:24;;;;;;;;;;;;;;;;;;;;;
2022/04/22 12:39:53;;;;;;;0.57;0.38;;;;;;;;;;5101522;28;20023;-81
2022/04/22 12:42:20;;;;;;;0.25;0.20;;;;;;;;;;5083778;28;20036;-79
2022/04/22 12:53:41;;;;;;;0.00;0.00;;;;;;;;;;5098994;28;20092;-81
2022/04/22 12:56:12;;;;;;;0.00;0.00;;;;;;;;;;5078994;28;20023;-80
2022/04/22 12:58:58;;;;;;;0.28;0.20;;;;;;;;;;5095183;28;20218;-79
2022/04/22 13:01:29;;;;;;;0.00;0.00;;;;;;;;;;5096084;28;20059;-80
2022/04/22 13:03:58;;;;;;;0.00;0.00;;;;;;;;;;5085619;28;20035;-81
2022/04/22 13:06:40;;;;;;;0.00;0.00;;;;;;;;;;5094834;28;20421;-81
2022/04/22 13:09:07;;;;;;;0.00;0.00;;;;;;;;;;5094416;28;20029;-79
2022/04/22 13:11:34;;;;;;;5.28;0.98;;;;;;;;;;5082370;28;20023;-78
2022/04/22 13:14:00;;;;;;;0.00;0.00;;;;;;;;;;5100678;28;20044;-80
2022/04/22 13:16:27;;;;;;;0.00;0.00;;;;;;;;;;5097527;28;20429;-79
2022/04/22 13:18:53;;;;;;;0.00;0.00;;;;;;;;;;5094795;28;20024;-80
2022/04/22 13:21:20;;;;;;;3.67;2.80;;;;;;;;;;5100831;28;20143;-80
2022/04/22 13:23:46;;;;;;;0.00;0.00;;;;;;;;;;5102520;28;20016;-80
2022/04/22 13:26:13;;;;;;;0.00;0.00;;;;;;;;;;5078940;28;20474;-80
2022/04/22 13:28:39;;;;;;;0.10;0.10;;;;;;;;;;5083996;28;20035;-80
2022/04/22 13:31:05;;;;;;;0.00;0.00;;;;;;;;;;5103277;28;20036;-80
2022/04/22 13:33:33;;;;;;;0.00;0.00;;;;;;;;;;5096960;28;20027;-80
2022/04/22 13:36:01;;;;;;;0.28;0.28;;;;;;;;;;5106277;28;20039;-80
2022/04/22 13:38:28;;;;;;;0.00;0.00;;;;;;;;;;5085702;28;20103;-80
2022/04/22 13:40:55;;;;;;;0.10;0.10;;;;;;;;;;5105905;28;20107;-80
2022/04/22 13:43:40;;;;;;;0.00;0.00;;;;;;;;;;5100347;28;20024;-79
2022/04/22 13:54:22;;;;;;;0.00;0.00;;;;;;;;;;5099781;28;20105;-80
2022/04/22 13:56:49;;;;;;;0.00;0.00;;;;;;;;;;5102798;28;20102;-81
2022/04/22 13:59:16;;;;;;;0.00;0.00;;;;;;;;;;5103516;28;20024;-80
2022/04/22 14:01:42;;;;;;;0.00;0.00;;;;;;;;;;5103750;28;20024;-80
2022/04/22 14:04:09;;;;;;;0.00;0.00;;;;;;;;;;5105638;28;20023;-78
2022/04/22 14:06:36;;;;;;;0.00;0.00;;;;;;;;;;5080729;28;20466;-80
2022/04/22 14:09:02;;;;;;;0.00;0.00;;;;;;;;;;5109015;28;20027;-79
2022/04/22 14:11:31;;;;;;;0.00;0.00;;;;;;;;;;5108032;28;20102;-80
2022/04/22 14:13:58;;;;;;;0.00;0.00;;;;;;;;;;5078407;28;20023;-82
2022/04/22 14:16:25;;;;;;;0.00;0.00;;;;;;;;;;5102703;28;20446;-79
2022/04/22 14:18:52;;;;;;;0.00;0.00;;;;;;;;;;5098602;28;20024;-81
2022/04/22 14:21:20;;;;;;;0.00;0.00;;;;;;;;;;5102269;28;20122;-79
2022/04/22 14:23:47;;;;;;;0.00;0.00;;;;;;;;;;5098923;28;20021;-81
2022/04/22 14:26:14;;;;;;;0.00;0.00;;;;;;;;;;5103218;28;20020;-82
2022/04/22 14:28:47;;;;;;;0.00;0.00;;;;;;;;;;5084687;28;20028;-80
2022/04/22 14:31:13;;;;;;;0.00;0.00;;;;;;;;;;5079677;28;20123;-81
2022/04/22 14:33:40;;;;;;;0.00;0.00;;;;;;;;;;5078558;28;20024;-80
2022/04/22 14:36:07;;;;;;;0.00;0.00;;;;;;;;;;5102963;28;20378;-80
2022/04/22 14:38:33;;;;;;;0.00;0.00;;;;;;;;;;5084324;28;20020;-81
2022/04/22 14:41:00;;;;;;;0.05;0.05;;;;;;;;;;5103053;28;20508;-80
2022/04/22 14:43:27;;;;;;;0.00;0.00;;;;;;;;;;5100874;28;20024;-80
2022/04/22 14:45:53;;;;;;;0.00;0.00;;;;;;;;;;5110813;28;20055;-81
2022/04/22 14:48:22;;;;;;;0.00;0.00;;;;;;;;;;5107127;28;20031;-79
2022/04/22 14:50:48;;;;;;;0.00;0.00;;;;;;;;;;5111586;28;20489;-80
2022/04/22 14:53:15;;;;;;;0.00;0.00;;;;;;;;;;5110841;28;20020;-79
2022/04/22 14:55:41;;;;;;;0.00;0.00;;;;;;;;;;5100582;28;20027;-79
2022/04/22 14:58:07;;;;;;;0.00;0.00;;;;;;;;;;5105462;28;20043;-79
2022/04/22 15:00:34;;;;;;;0.00;0.00;;;;;;;;;;5112176;28;20110;-80
2022/04/22 15:03:02;;;;;;;0.00;0.00;;;;;;;;;;5091342;28;20024;-79
2022/04/22 15:05:29;;;;;;;25.65;23.67;;;;;;;;;;5102611;28;20031;-81
2022/04/22 15:07:58;;;;;;;0.00;0.00;;;;;;;;;;5101424;28;20031;-79
2022/04/22 15:10:25;;;;;;;0.00;0.00;;;;;;;;;;5099014;28;20020;-81
2022/04/22 15:12:51;;;;;;;0.00;0.00;;;;;;;;;;5100833;28;20028;-81
2022/04/22 15:15:18;;;;;;;0.00;0.00;;;;;;;;;;5104767;28;20047;-80
2022/04/22 15:25:59;;;;;;;0.20;0.20;;;;;;;;;;5100420;28;20074;-81
2022/04/22 15:28:27;;;;;;;0.00;0.00;;;;;;;;;;5103364;28;20134;-82
2022/04/22 15:31:03;;;;;;;0.00;0.00;;;;;;;;;;5097836;28;20486;-81
2022/04/22 15:33:47;;;;;;;0.00;0.00;;;;;;;;;;5099095;28;20084;-82
2022/04/22 15:36:16;;;;;;;0.00;0.00;;;;;;;;;;5099617;28;20036;-81
2022/04/22 15:38:43;;;;;;;0.00;0.00;;;;;;;;;;5086096;28;20057;-82
2022/04/22 15:41:11;;;;;;;0.00;0.00;;;;;;;;;;5080676;28;20050;-80
2022/04/22 15:43:42;;;;;;;0.00;0.00;;;;;;;;;;5097110;28;20135;-81
2022/04/22 15:46:08;;;;;;;0.00;0.00;;;;;;;;;;5096829;28;20046;-79
2022/04/22 15:48:35;;;;;;;0.00;0.00;;;;;;;;;;5100426;28;20104;-80
2022/04/22 15:51:04;;;;;;;0.00;0.00;;;;;;;;;;5099305;28;20097;-80
2022/04/22 15:53:30;;;;;;;0.00;0.00;;;;;;;;;;5081920;28;20024;-80
2022/04/22 15:55:58;;;;;;;0.00;0.00;;;;;;;;;;5100685;28;20110;-81
2022/04/22 15:58:24;;;;;;;0.00;0.00;;;;;;;;;;5088890;28;20110;-78
2022/04/22 16:00:51;;;;;;;0.00;0.00;;;;;;;;;;5104897;28;20076;-81
2022/04/22 16:03:18;;;;;;;0.00;0.00;;;;;;;;;;5085028;28;20093;-80
2022/04/22 16:05:44;;;;;;;0.00;0.00;;;;;;;;;;5105403;28;20023;-81
2022/04/22 16:08:13;;;;;;;0.00;0.00;;;;;;;;;;5096874;28;20078;-81
2022/04/22 16:10:39;;;;;;;0.08;0.08;;;;;;;;;;5110076;28;20043;-81
2022/04/22 16:15:53;;;;;;;0.00;0.00;;;;;;;;;;5104726;28;20043;-81
2022/04/22 16:18:22;;;;;;;0.00;0.00;;;;;;;;;;5108059;28;20440;-80
2022/04/22 16:20:50;;;;;;;0.00;0.00;;;;;;;;;;5097667;28;20463;-80
2022/04/22 16:23:16;;;;;;;0.00;0.00;;;;;;;;;;5097104;28;20486;-80
2022/04/22 16:25:42;;;;;;;0.00;0.00;;;;;;;;;;5114137;28;20012;-78
2022/04/22 16:28:09;;;;;;;0.00;0.00;;;;;;;;;;5098431;28;20031;-80
2022/04/22 16:30:37;;;;;;;0.00;0.00;;;;;;;;;;5100623;28;20058;-80
2022/04/22 16:33:04;;;;;;;0.00;0.00;;;;;;;;;;5093004;28;20030;-81
2022/04/22 16:35:34;;;;;;;0.00;0.00;;;;;;;;;;5095468;28;20317;-79
2022/04/22 16:38:00;;;;;;;0.00;0.00;;;;;;;;;;5106320;28;20016;-79
2022/04/22 16:40:27;;;;;;;0.00;0.00;;;;;;;;;;5095682;28;20028;-79
2022/04/22 16:42:55;;;;;;;0.00;0.00;;;;;;;;;;5099928;28;20063;-80
2022/04/22 16:45:22;;;;;;;0.00;0.00;;;;;;;;;;5080441;28;20032;-79
2022/04/22 16:47:49;;;;;;;0.00;0.00;;;;;;;;;;5108767;28;20054;-79
2022/04/22 16:50:16;;;;;;;0.10;0.10;;;;;;;;;;5094572;28;20115;-80
2022/04/22 16:52:44;;;;;;;1.15;1.15;;;;;;;;;;5078801;28;20555;-79
2022/04/22 16:55:11;;;;;;;0.00;0.00;;;;;;;;;;5093947;28;20074;-79
2022/04/22 16:57:39;;;;;;;0.00;0.00;;;;;;;;;;5090731;28;20085;-79
2022/04/22 17:00:09;;;;;;;0.00;0.00;;;;;;;;;;5100470;28;20024;-80
2022/04/22 17:02:36;;;;;;;0.00;0.00;;;;;;;;;;5080850;28;20482;-80
2022/04/22 17:05:04;;;;;;;1.13;1.13;;;;;;;;;;5105628;28;20027;-80
2022/04/22 17:07:30;;;;;;;0.10;0.10;;;;;;;;;;5102537;28;20032;-79
2022/04/22 17:09:57;;;;;;;0.00;0.00;;;;;;;;;;5105893;28;20493;-81
2022/04/22 17:12:23;;;;;;;0.00;0.00;;;;;;;;;;5107169;28;20024;-81
2022/04/22 17:23:05;;;;;;;0.00;0.00;;;;;;;;;;5104799;28;20039;-80
2022/04/22 17:25:31;;;;;;;0.00;0.00;;;;;;;;;;5090985;28;20386;-81
2022/04/22 17:28:00;;;;;;;0.00;0.00;;;;;;;;;;5112198;28;20153;-82
2022/04/22 17:30:26;;;;;;;0.00;0.00;;;;;;;;;;5101857;28;20056;-79